createdAt,value
2023-02-08T00:01:34.876Z,25.40
2023-02-08T00:04:03.766Z,25.40
2023-02-08T00:06:32.817Z,25.40
2023-02-08T00:09:02.430Z,25.40
2023-02-08T00:11:35.501Z,25.40
2023-02-08T00:14:04.530Z,25.40
2023-02-08T00:16:33.443Z,25.40
2023-02-08T00:19:02.342Z,25.40
2023-02-08T00:21:31.345Z,25.40
2023-02-08T00:24:00.498Z,25.40
2023-02-08T00:26:29.418Z,25.30
2023-02-08T00:28:58.320Z,25.40
2023-02-08T00:31:27.341Z,25.40
2023-02-08T00:33:56.283Z,25.40
2023-02-08T00:36:25.255Z,25.40
2023-02-08T00:38:54.138Z,25.50
2023-02-08T00:41:23.080Z,25.50
2023-02-08T00:43:51.969Z,25.50
2023-02-08T00:46:21.747Z,25.60
2023-02-08T00:48:50.800Z,25.60
2023-02-08T00:51:19.692Z,25.70
2023-02-08T00:53:48.684Z,25.70
2023-02-08T00:56:18.159Z,25.80
2023-02-08T00:58:47.183Z,25.90
2023-02-08T01:01:16.447Z,25.90
2023-02-08T01:03:46.360Z,26.00
2023-02-08T01:06:18.111Z,26.10
2023-02-08T01:08:47.022Z,26.20
2023-02-08T01:11:23.497Z,26.40
2023-02-08T01:13:58.418Z,26.50
2023-02-08T01:16:29.954Z,26.60
2023-02-08T01:19:00.478Z,26.80
2023-02-08T01:21:32.768Z,26.90
2023-02-08T01:24:02.040Z,27.00
2023-02-08T01:26:31.455Z,27.10
2023-02-08T01:29:00.616Z,27.20
2023-02-08T01:31:34.834Z,27.30
2023-02-08T01:34:05.459Z,27.30
2023-02-08T01:36:35.462Z,27.40
2023-02-08T01:39:05.460Z,27.50
2023-02-08T01:41:37.826Z,27.60
2023-02-08T01:44:15.628Z,27.60
2023-02-08T01:46:52.777Z,27.60
2023-02-08T01:49:33.402Z,27.60
2023-02-08T01:52:22.245Z,27.50
2023-02-08T01:55:01.653Z,27.40
2023-02-08T01:57:31.281Z,27.40
2023-02-08T02:00:06.311Z,27.30
2023-02-08T02:02:37.386Z,27.30
2023-02-08T02:05:06.797Z,27.20
2023-02-08T02:07:35.838Z,27.30
2023-02-08T02:10:24.439Z,27.30
2023-02-08T02:12:55.132Z,27.30
2023-02-08T02:15:24.237Z,27.30
2023-02-08T02:17:53.391Z,27.30
2023-02-08T02:20:39.948Z,27.40
2023-02-08T02:23:36.508Z,27.40
2023-02-08T02:26:26.843Z,27.50
2023-02-08T02:29:16.916Z,27.60
2023-02-08T02:32:24.061Z,27.70
2023-02-08T02:34:58.619Z,28.00
2023-02-08T02:38:02.099Z,28.30
2023-02-08T02:41:05.613Z,28.60
2023-02-08T02:43:47.362Z,28.80
2023-02-08T02:46:31.984Z,29.00
2023-02-08T02:49:22.551Z,29.20
2023-02-08T02:52:00.001Z,29.60
2023-02-08T02:54:33.432Z,29.80
2023-02-08T02:57:07.169Z,30.00
2023-02-08T02:59:37.108Z,30.20
2023-02-08T03:02:06.859Z,30.40
2023-02-08T03:04:35.825Z,30.50
2023-02-08T03:07:21.346Z,30.60
2023-02-08T03:10:18.120Z,30.70
2023-02-08T03:12:59.357Z,30.80
2023-02-08T03:15:52.780Z,31.00
2023-02-08T03:18:42.636Z,31.10
2023-02-08T03:21:44.607Z,31.10
2023-02-08T03:24:24.533Z,31.30
2023-02-08T03:27:12.911Z,31.40
2023-02-08T03:29:50.960Z,31.70
2023-02-08T03:32:43.486Z,31.90
2023-02-08T03:35:52.611Z,32.00
2023-02-08T03:38:33.210Z,32.20
2023-02-08T03:41:05.936Z,32.30
2023-02-08T03:43:57.737Z,32.50
2023-02-08T03:46:32.406Z,32.80
2023-02-08T03:49:23.583Z,32.90
2023-02-08T03:51:56.106Z,33.10
2023-02-08T03:54:28.074Z,33.20
2023-02-08T03:57:14.113Z,33.40
2023-02-08T03:59:45.250Z,33.50
2023-02-08T04:02:19.658Z,33.50
2023-02-08T04:04:51.668Z,33.70
2023-02-08T04:07:21.507Z,33.80
2023-02-08T04:09:50.722Z,33.90
2023-02-08T04:12:19.672Z,33.80
2023-02-08T04:15:06.882Z,33.80
2023-02-08T04:17:35.820Z,33.90
2023-02-08T04:20:04.902Z,34.00
2023-02-08T04:22:34.709Z,34.10
2023-02-08T04:25:03.690Z,34.20
2023-02-08T04:27:32.601Z,34.30
2023-02-08T04:30:01.496Z,34.40
2023-02-08T04:32:30.473Z,34.50
2023-02-08T04:35:17.952Z,34.70
2023-02-08T04:37:46.971Z,34.70
2023-02-08T04:40:15.975Z,34.80
2023-02-08T04:42:45.009Z,34.90
2023-02-08T04:45:14.033Z,34.90
2023-02-08T04:47:42.985Z,35.00
2023-02-08T04:50:12.918Z,35.10
2023-02-08T04:52:41.857Z,35.20
2023-02-08T04:55:10.818Z,35.30
2023-02-08T04:57:39.709Z,35.40
2023-02-08T05:00:09.311Z,35.30
2023-02-08T05:02:38.198Z,35.10
2023-02-08T05:05:07.398Z,35.00
2023-02-08T05:07:36.698Z,35.00
2023-02-08T05:10:08.398Z,35.00
2023-02-08T05:12:55.405Z,34.90
2023-02-08T05:15:24.404Z,35.00
2023-02-08T05:17:53.732Z,35.00
2023-02-08T05:20:22.863Z,35.10
2023-02-08T05:22:51.866Z,35.30
2023-02-08T05:25:21.107Z,35.40
2023-02-08T05:27:50.243Z,35.50
2023-02-08T05:30:19.371Z,35.60
2023-02-08T05:32:48.341Z,35.50
2023-02-08T05:35:17.394Z,35.60
2023-02-08T05:37:46.441Z,35.70
2023-02-08T05:40:15.472Z,35.80
2023-02-08T05:42:45.706Z,36.00
2023-02-08T05:45:15.270Z,36.10
2023-02-08T05:47:44.245Z,36.20
2023-02-08T05:50:13.233Z,36.30
2023-02-08T05:52:43.360Z,36.40
2023-02-08T05:55:12.408Z,36.50
2023-02-08T05:57:41.423Z,36.60
2023-02-08T06:00:11.094Z,36.60
2023-02-08T06:02:40.089Z,36.60
2023-02-08T06:05:09.432Z,36.70
2023-02-08T06:07:38.363Z,36.70
2023-02-08T06:10:09.395Z,36.80
2023-02-08T06:12:39.423Z,36.90
2023-02-08T06:15:08.685Z,36.90
2023-02-08T06:17:37.574Z,36.90
2023-02-08T06:20:07.604Z,37.00
2023-02-08T06:22:36.808Z,36.90
2023-02-08T06:25:06.213Z,36.90
2023-02-08T06:27:35.125Z,36.90
2023-02-08T06:30:04.416Z,36.90
2023-02-08T06:32:33.872Z,36.90
2023-02-08T06:35:02.846Z,36.90
2023-02-08T06:37:31.835Z,37.00
2023-02-08T06:40:02.989Z,37.00
2023-02-08T06:42:49.958Z,36.80
2023-02-08T06:45:19.639Z,36.80
2023-02-08T06:47:48.606Z,36.70
2023-02-08T06:50:17.732Z,36.80
2023-02-08T06:52:46.719Z,36.70
2023-02-08T06:55:16.120Z,36.80
2023-02-08T06:57:45.131Z,36.90
2023-02-08T07:00:14.628Z,36.90
2023-02-08T07:02:43.578Z,37.00
2023-02-08T07:05:12.548Z,37.00
2023-02-08T07:07:41.587Z,36.80
2023-02-08T07:10:10.884Z,36.90
2023-02-08T07:12:40.143Z,36.90
2023-02-08T07:15:09.470Z,36.90
2023-02-08T07:17:38.378Z,36.90
2023-02-08T07:20:07.762Z,37.00
2023-02-08T07:22:55.121Z,36.90
2023-02-08T07:25:24.205Z,36.80
2023-02-08T07:27:53.618Z,36.80
2023-02-08T07:30:41.361Z,36.80
2023-02-08T07:33:10.432Z,36.80
2023-02-08T07:35:39.382Z,36.80
2023-02-08T07:38:08.237Z,36.80
2023-02-08T07:40:37.293Z,36.80
2023-02-08T07:43:06.353Z,36.90
2023-02-08T07:45:35.347Z,36.90
2023-02-08T07:48:04.282Z,36.90
2023-02-08T07:50:33.238Z,36.80
2023-02-08T07:53:02.133Z,36.80
2023-02-08T07:55:31.059Z,36.70
2023-02-08T07:58:00.695Z,36.50
2023-02-08T08:00:29.723Z,36.50
2023-02-08T08:03:17.124Z,36.30
2023-02-08T08:05:46.049Z,36.20
2023-02-08T08:08:15.135Z,36.00
2023-02-08T08:10:44.242Z,35.80
2023-02-08T08:13:13.553Z,35.50
2023-02-08T08:15:42.537Z,35.30
2023-02-08T08:18:11.666Z,35.10
2023-02-08T08:20:40.827Z,34.90
2023-02-08T08:23:10.202Z,34.80
2023-02-08T08:25:39.879Z,34.80
2023-02-08T08:28:08.917Z,34.80
2023-02-08T08:30:38.022Z,34.80
2023-02-08T08:33:08.101Z,34.90
2023-02-08T08:35:37.221Z,34.90
2023-02-08T08:38:06.294Z,35.00
2023-02-08T08:40:35.284Z,35.10
2023-02-08T08:43:04.250Z,35.20
2023-02-08T08:45:34.296Z,35.20
2023-02-08T08:48:04.413Z,35.20
2023-02-08T08:50:33.449Z,35.10
2023-02-08T08:53:02.376Z,35.10
2023-02-08T08:55:31.330Z,35.00
2023-02-08T08:58:00.283Z,34.90
2023-02-08T09:00:29.192Z,34.80
2023-02-08T09:02:58.326Z,34.70
2023-02-08T09:05:27.447Z,34.60
2023-02-08T09:07:56.614Z,34.40
2023-02-08T09:10:25.518Z,34.30
2023-02-08T09:12:54.524Z,34.30
2023-02-08T09:15:23.445Z,34.30
2023-02-08T09:17:52.465Z,34.30
2023-02-08T09:20:21.596Z,34.30
2023-02-08T09:22:50.881Z,34.30
2023-02-08T09:25:19.967Z,34.20
2023-02-08T09:27:49.001Z,34.20
2023-02-08T09:30:18.033Z,34.20
2023-02-08T09:32:47.210Z,34.20
2023-02-08T09:35:18.179Z,34.20
2023-02-08T09:37:47.115Z,34.20
2023-02-08T09:40:35.488Z,34.20
2023-02-08T09:43:50.008Z,34.20
2023-02-08T09:46:19.899Z,34.10
2023-02-08T09:48:52.090Z,34.00
2023-02-08T09:51:32.022Z,34.00
2023-02-08T09:54:10.023Z,33.80
2023-02-08T09:56:43.278Z,33.70
2023-02-08T09:59:19.773Z,33.60
2023-02-08T10:01:52.116Z,33.50
2023-02-08T10:04:26.178Z,33.40
2023-02-08T10:06:55.355Z,33.30
2023-02-08T10:09:28.424Z,33.20
2023-02-08T10:12:03.602Z,33.20
2023-02-08T10:14:44.888Z,33.10
2023-02-08T10:17:43.141Z,33.10
2023-02-08T10:20:30.172Z,33.00
2023-02-08T10:23:26.196Z,32.90
2023-02-08T10:26:11.453Z,32.90
2023-02-08T10:28:58.978Z,32.80
2023-02-08T10:31:29.936Z,32.70
2023-02-08T10:34:06.239Z,32.70
2023-02-08T10:36:44.192Z,32.60
2023-02-08T10:39:35.780Z,32.50
2023-02-08T10:42:06.318Z,32.50
2023-02-08T10:44:44.887Z,32.40
2023-02-08T10:47:35.891Z,32.40
2023-02-08T10:50:30.287Z,32.40
2023-02-08T10:52:59.455Z,32.30
2023-02-08T10:55:28.553Z,32.20
2023-02-08T10:58:01.306Z,32.20
2023-02-08T11:00:35.011Z,32.10
2023-02-08T11:03:16.755Z,32.10
2023-02-08T11:05:46.690Z,32.00
2023-02-08T11:08:20.652Z,32.00
2023-02-08T11:11:11.568Z,31.90
2023-02-08T11:13:45.535Z,31.90
2023-02-08T11:16:26.231Z,31.90
2023-02-08T11:19:02.449Z,31.80
2023-02-08T11:21:37.789Z,31.70
2023-02-08T11:24:28.907Z,31.70
2023-02-08T11:26:58.463Z,31.60
2023-02-08T11:29:30.642Z,31.70
2023-02-08T11:32:26.642Z,31.60
2023-02-08T11:35:22.079Z,31.60
2023-02-08T11:38:01.739Z,31.50
2023-02-08T11:40:39.822Z,31.50
2023-02-08T11:43:09.322Z,31.50
2023-02-08T11:45:39.185Z,31.40
2023-02-08T11:48:24.236Z,31.40
2023-02-08T11:51:02.480Z,31.40
2023-02-08T11:53:47.449Z,31.30
2023-02-08T11:56:19.507Z,31.30
2023-02-08T11:59:03.301Z,31.30
2023-02-08T12:01:41.562Z,31.20
2023-02-08T12:04:17.311Z,31.20
2023-02-08T12:07:10.932Z,31.20
2023-02-08T12:10:13.073Z,31.10
2023-02-08T12:12:44.712Z,31.00
2023-02-08T12:15:29.133Z,31.00
2023-02-08T12:18:23.847Z,30.90
2023-02-08T12:21:30.662Z,30.90
2023-02-08T12:24:11.475Z,30.80
2023-02-08T12:26:46.277Z,30.80
2023-02-08T12:29:47.237Z,30.70
2023-02-08T12:32:22.440Z,30.70
2023-02-08T12:35:09.500Z,30.60
2023-02-08T12:38:20.854Z,30.50
2023-02-08T12:41:15.774Z,30.50
2023-02-08T12:43:50.958Z,30.40
2023-02-08T12:46:32.204Z,30.40
2023-02-08T12:49:50.071Z,30.40
2023-02-08T12:52:40.317Z,30.40
2023-02-08T12:55:25.003Z,30.30
2023-02-08T12:58:18.985Z,30.30
2023-02-08T13:00:49.878Z,30.20
2023-02-08T13:03:33.076Z,30.20
2023-02-08T13:06:04.303Z,30.20
2023-02-08T13:08:46.265Z,30.10
2023-02-08T13:11:44.019Z,30.10
2023-02-08T13:14:39.741Z,30.00
2023-02-08T13:17:43.157Z,30.00
2023-02-08T13:20:33.791Z,29.90
2023-02-08T13:23:07.950Z,29.90
2023-02-08T13:25:38.896Z,29.80
2023-02-08T13:28:12.734Z,29.80
2023-02-08T13:30:42.593Z,29.70
2023-02-08T13:33:23.907Z,29.70
2023-02-08T13:35:55.251Z,29.70
2023-02-08T13:38:36.583Z,29.60
2023-02-08T13:41:18.835Z,29.60
2023-02-08T13:43:50.668Z,29.60
2023-02-08T13:46:21.705Z,29.50
2023-02-08T13:49:02.587Z,29.50
2023-02-08T13:51:34.631Z,29.50
2023-02-08T13:54:03.488Z,29.50
2023-02-08T13:56:50.876Z,29.40
2023-02-08T13:59:29.112Z,29.40
2023-02-08T14:02:23.486Z,29.40
2023-02-08T14:05:02.128Z,29.30
2023-02-08T14:07:51.688Z,29.30
2023-02-08T14:10:27.664Z,29.30
2023-02-08T14:13:24.375Z,29.20
2023-02-08T14:16:27.693Z,29.20
2023-02-08T14:19:03.064Z,29.10
2023-02-08T14:21:36.537Z,29.10
2023-02-08T14:24:09.449Z,29.10
2023-02-08T14:26:39.206Z,29.10
2023-02-08T14:29:08.972Z,29.00
2023-02-08T14:31:44.889Z,29.00
2023-02-08T14:34:35.350Z,29.00
2023-02-08T14:37:20.401Z,28.90
2023-02-08T14:39:53.944Z,28.90
2023-02-08T14:42:58.608Z,28.90
2023-02-08T14:45:32.278Z,28.90
2023-02-08T14:48:31.549Z,28.80
2023-02-08T14:51:12.400Z,28.80
2023-02-08T14:54:02.861Z,28.70
2023-02-08T14:56:45.212Z,28.70
2023-02-08T14:59:18.290Z,28.70
2023-02-08T15:02:05.063Z,28.60
2023-02-08T15:04:42.863Z,28.60
2023-02-08T15:07:40.964Z,28.50
2023-02-08T15:10:18.765Z,28.50
2023-02-08T15:12:57.721Z,28.50
2023-02-08T15:15:34.078Z,28.40
2023-02-08T15:18:05.621Z,28.40
2023-02-08T15:20:37.026Z,28.40
2023-02-08T15:23:24.905Z,28.30
2023-02-08T15:25:58.152Z,28.30
2023-02-08T15:28:30.557Z,28.30
2023-02-08T15:31:01.522Z,28.20
2023-02-08T15:33:30.865Z,28.20
2023-02-08T15:36:09.935Z,28.20
2023-02-08T15:38:40.234Z,28.20
2023-02-08T15:41:13.464Z,28.20
2023-02-08T15:43:44.032Z,28.10
2023-02-08T15:46:28.812Z,28.10
2023-02-08T15:48:58.713Z,28.10
2023-02-08T15:51:28.580Z,28.10
2023-02-08T15:53:58.517Z,28.00
2023-02-08T15:56:42.414Z,28.00
2023-02-08T15:59:38.857Z,28.00
2023-02-08T16:02:29.341Z,28.00
2023-02-08T16:04:59.748Z,28.00
2023-02-08T16:07:39.171Z,28.00
2023-02-08T16:10:11.149Z,28.00
2023-02-08T16:12:40.114Z,27.90
2023-02-08T16:15:35.692Z,27.90
2023-02-08T16:18:04.806Z,27.90
2023-02-08T16:20:36.073Z,27.90
2023-02-08T16:23:24.733Z,27.90
2023-02-08T16:25:53.775Z,27.80
2023-02-08T16:28:30.404Z,27.80
2023-02-08T16:31:02.649Z,27.80
2023-02-08T16:33:33.424Z,27.80
2023-02-08T16:36:05.563Z,27.70
2023-02-08T16:38:36.139Z,27.70
2023-02-08T16:41:13.925Z,27.70
2023-02-08T16:43:48.965Z,27.70
2023-02-08T16:46:19.744Z,27.70
2023-02-08T16:48:57.205Z,27.70
2023-02-08T16:51:29.514Z,27.60
2023-02-08T16:54:03.713Z,27.60
2023-02-08T16:56:32.711Z,27.60
2023-02-08T16:59:01.799Z,27.60
2023-02-08T17:01:30.751Z,27.60
2023-02-08T17:03:59.827Z,27.60
2023-02-08T17:06:37.837Z,27.60
2023-02-08T17:09:10.217Z,27.50
2023-02-08T17:11:39.670Z,27.50
2023-02-08T17:14:11.266Z,27.50
2023-02-08T17:16:41.282Z,27.50
2023-02-08T17:19:17.874Z,27.50
2023-02-08T17:21:47.128Z,27.50
2023-02-08T17:24:16.005Z,27.50
2023-02-08T17:26:46.115Z,27.50
2023-02-08T17:29:15.176Z,27.50
2023-02-08T17:31:44.164Z,27.50
2023-02-08T17:34:13.314Z,27.40
2023-02-08T17:36:42.811Z,27.40
2023-02-08T17:39:12.767Z,27.40
2023-02-08T17:41:42.315Z,27.40
2023-02-08T17:44:13.993Z,27.40
2023-02-08T17:46:43.841Z,27.40
2023-02-08T17:49:13.148Z,27.30
2023-02-08T17:51:42.012Z,27.30
2023-02-08T17:54:12.313Z,27.30
2023-02-08T17:56:41.269Z,27.30
2023-02-08T17:59:10.188Z,27.30
2023-02-08T18:01:39.222Z,27.20
2023-02-08T18:04:10.408Z,27.20
2023-02-08T18:06:39.329Z,27.20
2023-02-08T18:09:08.238Z,27.20
2023-02-08T18:11:37.144Z,27.20
2023-02-08T18:14:06.023Z,27.20
2023-02-08T18:16:37.076Z,27.20
2023-02-08T18:19:06.034Z,27.10
2023-02-08T18:21:35.171Z,27.10
2023-02-08T18:24:07.984Z,27.10
2023-02-08T18:26:37.057Z,27.00
2023-02-08T18:29:24.394Z,27.00
2023-02-08T18:31:54.108Z,26.90
2023-02-08T18:34:23.071Z,26.90
2023-02-08T18:36:52.006Z,26.90
2023-02-08T18:39:24.230Z,26.80
2023-02-08T18:41:53.529Z,26.80
2023-02-08T18:44:22.475Z,26.80
2023-02-08T18:46:52.431Z,26.70
2023-02-08T18:49:21.451Z,26.70
2023-02-08T18:51:50.346Z,26.70
2023-02-08T18:54:19.894Z,26.60
2023-02-08T18:56:52.128Z,26.60
2023-02-08T18:59:21.205Z,26.50
2023-02-08T19:01:50.148Z,26.50
2023-02-08T19:04:19.072Z,26.50
2023-02-08T19:06:48.363Z,26.50
2023-02-08T19:09:17.329Z,26.50
2023-02-08T19:11:47.154Z,26.50
2023-02-08T19:14:16.896Z,26.50
2023-02-08T19:16:46.379Z,26.50
2023-02-08T19:19:15.309Z,26.50
2023-02-08T19:21:44.338Z,26.50
2023-02-08T19:24:16.496Z,26.50
2023-02-08T19:26:45.457Z,26.50
2023-02-08T19:29:16.875Z,26.50
2023-02-08T19:31:47.320Z,26.40
2023-02-08T19:34:16.756Z,26.50
2023-02-08T19:36:50.342Z,26.50
2023-02-08T19:39:22.570Z,26.50
2023-02-08T19:41:52.113Z,26.50
2023-02-08T19:44:21.652Z,26.50
2023-02-08T19:46:52.640Z,26.50
2023-02-08T19:49:22.747Z,26.50
2023-02-08T19:51:51.733Z,26.50
2023-02-08T19:54:22.009Z,26.50
2023-02-08T19:56:55.764Z,26.40
2023-02-08T19:59:26.684Z,26.40
2023-02-08T20:01:56.590Z,26.40
2023-02-08T20:04:25.791Z,26.40
2023-02-08T20:06:55.964Z,26.40
2023-02-08T20:09:24.896Z,26.40
2023-02-08T20:11:57.965Z,26.40
2023-02-08T20:14:34.026Z,26.40
2023-02-08T20:17:04.177Z,26.40
2023-02-08T20:19:33.151Z,26.40
2023-02-08T20:22:02.083Z,26.40
2023-02-08T20:24:31.137Z,26.30
2023-02-08T20:27:00.142Z,26.30
2023-02-08T20:29:29.818Z,26.30
2023-02-08T20:31:59.200Z,26.30
2023-02-08T20:34:29.510Z,26.30
2023-02-08T20:37:07.382Z,26.30
2023-02-08T20:39:38.285Z,26.20
2023-02-08T20:42:07.909Z,26.30
2023-02-08T20:44:37.049Z,26.20
2023-02-08T20:47:06.234Z,26.20
2023-02-08T20:49:35.280Z,26.20
2023-02-08T20:52:04.228Z,26.20
2023-02-08T20:54:33.179Z,26.20
2023-02-08T20:57:02.174Z,26.20
2023-02-08T20:59:31.177Z,26.20
2023-02-08T21:02:00.233Z,26.10
2023-02-08T21:04:29.186Z,26.20
2023-02-08T21:06:58.268Z,26.10
2023-02-08T21:09:27.234Z,26.10
2023-02-08T21:11:56.177Z,26.10
2023-02-08T21:14:26.066Z,26.10
2023-02-08T21:16:57.702Z,26.10
2023-02-08T21:19:28.320Z,26.10
2023-02-08T21:22:00.300Z,26.10
2023-02-08T21:24:30.597Z,26.00
2023-02-08T21:27:00.112Z,26.00
2023-02-08T21:29:30.629Z,26.00
2023-02-08T21:31:59.843Z,26.00
2023-02-08T21:34:28.955Z,25.90
2023-02-08T21:36:57.835Z,25.90
2023-02-08T21:39:26.795Z,25.90
2023-02-08T21:41:56.537Z,25.90
2023-02-08T21:44:25.555Z,25.90
2023-02-08T21:46:54.529Z,25.90
2023-02-08T21:49:41.824Z,25.80
2023-02-08T21:52:31.248Z,25.80
2023-02-08T21:55:00.123Z,25.80
2023-02-08T21:57:31.721Z,25.80
2023-02-08T22:00:06.115Z,25.80
2023-02-08T22:02:35.696Z,25.70
2023-02-08T22:05:06.185Z,25.80
2023-02-08T22:07:56.138Z,25.70
2023-02-08T22:10:28.763Z,25.70
2023-02-08T22:12:58.475Z,25.70
2023-02-08T22:15:30.239Z,25.60
2023-02-08T22:18:01.854Z,25.60
2023-02-08T22:20:31.474Z,25.60
2023-02-08T22:23:00.545Z,25.60
2023-02-08T22:25:29.620Z,25.60
2023-02-08T22:27:58.586Z,25.60
2023-02-08T22:30:27.595Z,25.60
2023-02-08T22:32:56.597Z,25.50
2023-02-08T22:35:25.645Z,25.50
2023-02-08T22:37:54.643Z,25.50
2023-02-08T22:40:23.753Z,25.50
2023-02-08T22:42:52.883Z,25.40
2023-02-08T22:45:21.916Z,25.40
2023-02-08T22:47:50.922Z,25.40
2023-02-08T22:50:19.895Z,25.40
2023-02-08T22:52:48.795Z,25.40
2023-02-08T22:55:17.814Z,25.40
2023-02-08T22:57:46.810Z,25.40
2023-02-08T23:00:16.842Z,25.40
2023-02-08T23:02:46.049Z,25.40
2023-02-08T23:05:15.687Z,25.40
2023-02-08T23:07:44.636Z,25.40
2023-02-08T23:10:14.238Z,25.40
2023-02-08T23:12:43.233Z,25.40
2023-02-08T23:15:12.848Z,25.40
2023-02-08T23:17:41.856Z,25.40
2023-02-08T23:20:11.880Z,25.40
2023-02-08T23:22:40.813Z,25.30
2023-02-08T23:25:10.121Z,25.30
2023-02-08T23:27:39.243Z,25.30
2023-02-08T23:30:09.644Z,25.30
2023-02-08T23:32:38.811Z,25.30
2023-02-08T23:35:09.519Z,25.30
2023-02-08T23:37:38.987Z,25.30
2023-02-08T23:40:08.314Z,25.30
2023-02-08T23:42:37.242Z,25.20
2023-02-08T23:45:06.839Z,25.20
2023-02-08T23:47:35.924Z,25.20
2023-02-08T23:50:04.995Z,25.20
2023-02-08T23:52:36.035Z,25.10
2023-02-08T23:55:05.961Z,25.10
2023-02-08T23:57:39.408Z,25.10
